createdAt,value
2022-08-26T00:02:54.623Z,23.18
2022-08-26T00:07:57.687Z,22.41
2022-08-26T00:13:00.730Z,21.93
2022-08-26T00:18:04.445Z,21.53
2022-08-26T00:23:24.091Z,21.19
2022-08-26T00:28:27.867Z,20.89
2022-08-26T00:33:31.048Z,20.63
2022-08-26T00:38:37.905Z,20.45
2022-08-26T00:43:46.218Z,20.27
2022-08-26T00:48:56.342Z,21.12
2022-08-26T00:54:06.123Z,23.54
2022-08-26T00:59:13.314Z,24.05
2022-08-26T01:04:21.667Z,22.75
2022-08-26T01:09:25.065Z,21.95
2022-08-26T01:14:34.121Z,21.46
2022-08-26T01:19:52.673Z,21.06
2022-08-26T01:24:58.981Z,20.70
2022-08-26T01:30:02.986Z,20.42
2022-08-26T01:35:08.161Z,21.14
2022-08-26T01:40:21.976Z,23.47
2022-08-26T01:45:30.660Z,23.96
2022-08-26T01:50:36.205Z,22.62
2022-08-26T01:55:43.193Z,21.80
2022-08-26T02:00:46.762Z,21.27
2022-08-26T02:05:55.839Z,20.83
2022-08-26T02:10:59.010Z,20.46
2022-08-26T02:16:04.114Z,21.09
2022-08-26T02:21:10.024Z,23.36
2022-08-26T02:26:19.261Z,23.63
2022-08-26T02:31:23.116Z,22.23
2022-08-26T02:36:28.728Z,21.39
2022-08-26T02:41:33.194Z,20.86
2022-08-26T02:46:36.366Z,20.47
2022-08-26T02:51:40.531Z,20.14
2022-08-26T02:56:46.284Z,19.86
2022-08-26T03:01:49.871Z,20.57
2022-08-26T03:06:53.648Z,22.88
2022-08-26T03:11:59.707Z,23.44
2022-08-26T03:17:02.675Z,22.11
2022-08-26T03:22:07.402Z,21.27
2022-08-26T03:27:10.747Z,20.74
2022-08-26T03:32:14.219Z,20.32
2022-08-26T03:37:17.244Z,19.97
2022-08-26T03:42:22.263Z,19.67
2022-08-26T03:47:25.375Z,20.41
2022-08-26T03:52:28.377Z,22.75
2022-08-26T03:57:31.451Z,23.28
2022-08-26T04:02:34.759Z,21.98
2022-08-26T04:07:38.125Z,21.12
2022-08-26T04:12:42.534Z,20.59
2022-08-26T04:17:45.955Z,20.22
2022-08-26T04:22:49.061Z,19.93
2022-08-26T04:27:52.365Z,20.83
2022-08-26T04:32:56.132Z,23.51
2022-08-26T04:37:59.134Z,24.44
2022-08-26T04:43:02.531Z,24.45
2022-08-26T04:48:05.978Z,25.21
2022-08-26T04:53:14.175Z,26.20
2022-08-26T04:58:19.721Z,27.12
2022-08-26T05:03:24.743Z,27.84
2022-08-26T05:08:27.750Z,28.74
2022-08-26T05:13:31.161Z,29.63
2022-08-26T05:18:34.808Z,30.08
2022-08-26T05:23:38.242Z,30.15
2022-08-26T05:28:41.350Z,30.20
2022-08-26T05:33:46.863Z,30.67
2022-08-26T05:38:50.395Z,30.86
2022-08-26T05:43:54.078Z,31.29
2022-08-26T05:48:58.216Z,31.98
2022-08-26T05:54:06.784Z,32.29
2022-08-26T05:59:14.698Z,31.30
2022-08-26T06:04:17.746Z,29.85
2022-08-26T06:09:23.578Z,28.57
2022-08-26T06:14:27.200Z,27.46
2022-08-26T06:19:32.775Z,26.68
2022-08-26T06:24:54.742Z,26.04
2022-08-26T06:29:57.817Z,25.53
2022-08-26T06:35:00.978Z,25.23
2022-08-26T06:40:05.922Z,25.01
2022-08-26T06:45:09.726Z,24.86
2022-08-26T06:50:14.299Z,24.78
2022-08-26T06:55:17.341Z,24.72
2022-08-26T07:00:21.499Z,24.70
2022-08-26T07:05:25.798Z,24.68
2022-08-26T07:10:29.264Z,24.67
2022-08-26T07:15:32.422Z,24.64
2022-08-26T07:20:43.037Z,24.64
2022-08-26T07:25:46.206Z,24.63
2022-08-26T07:30:50.132Z,24.63
2022-08-26T07:35:53.390Z,24.62
2022-08-26T07:40:56.370Z,24.63
2022-08-26T07:45:59.415Z,24.64
2022-08-26T07:51:03.387Z,24.67
2022-08-26T07:56:06.593Z,24.69
2022-08-26T08:01:09.906Z,24.72
2022-08-26T08:06:13.145Z,24.76
2022-08-26T08:11:16.129Z,24.80
2022-08-26T08:16:19.223Z,24.85
2022-08-26T08:21:26.778Z,24.90
2022-08-26T08:26:30.434Z,24.95
2022-08-26T08:36:58.770Z,25.05
2022-08-26T08:42:27.698Z,25.08
2022-08-26T08:47:43.201Z,25.03
2022-08-26T08:53:09.089Z,24.98
2022-08-26T08:58:19.271Z,25.00
2022-08-26T09:03:58.499Z,25.09
2022-08-26T09:09:05.048Z,25.18
2022-08-26T09:14:09.958Z,25.31
2022-08-26T09:19:26.786Z,25.42
2022-08-26T09:24:37.332Z,25.54
2022-08-26T09:29:45.733Z,25.63
2022-08-26T09:35:06.160Z,25.74
2022-08-26T09:40:34.896Z,25.86
2022-08-26T09:45:41.480Z,26.03
2022-08-26T09:50:56.975Z,26.19
2022-08-26T09:56:18.059Z,26.28
2022-08-26T10:01:24.172Z,26.36
2022-08-26T10:06:28.572Z,26.47
2022-08-26T10:11:47.279Z,26.51
2022-08-26T10:17:01.019Z,26.53
2022-08-26T10:22:26.182Z,26.52
2022-08-26T10:27:53.743Z,26.46
2022-08-26T10:33:08.217Z,26.37
2022-08-26T10:38:17.209Z,26.41
2022-08-26T10:43:55.952Z,26.54
2022-08-26T10:49:06.850Z,26.63
2022-08-26T10:54:47.768Z,26.76
2022-08-26T11:00:31.309Z,26.92
2022-08-26T11:05:34.504Z,27.12
2022-08-26T11:10:43.324Z,27.26
2022-08-26T11:15:46.217Z,27.39
2022-08-26T11:20:49.860Z,27.50
2022-08-26T11:25:57.477Z,27.56
2022-08-26T11:31:00.745Z,27.65
2022-08-26T11:36:12.023Z,27.71
2022-08-26T11:41:21.956Z,27.73
2022-08-26T11:46:31.466Z,27.75
2022-08-26T11:51:40.427Z,27.78
2022-08-26T11:56:48.769Z,27.80
2022-08-26T12:01:54.746Z,27.83
2022-08-26T12:07:00.830Z,27.87
2022-08-26T12:12:39.591Z,27.91
2022-08-26T12:17:45.569Z,27.94
2022-08-26T12:22:48.668Z,27.94
2022-08-26T12:27:53.646Z,27.90
2022-08-26T12:33:22.288Z,27.78
2022-08-26T12:38:28.409Z,27.62
2022-08-26T12:43:46.017Z,27.57
2022-08-26T12:48:50.184Z,27.58
2022-08-26T12:53:54.260Z,27.62
2022-08-26T12:59:26.352Z,27.63
2022-08-26T13:04:42.662Z,27.68
2022-08-26T13:09:45.840Z,27.76
2022-08-26T13:14:48.927Z,27.83
2022-08-26T13:19:52.089Z,27.84
2022-08-26T13:24:57.244Z,27.75
2022-08-26T13:30:01.766Z,27.65
2022-08-26T13:35:06.064Z,27.57
2022-08-26T13:40:11.094Z,27.50
2022-08-26T13:45:14.200Z,27.44
2022-08-26T13:50:17.431Z,27.37
2022-08-26T13:55:20.582Z,27.34
2022-08-26T14:00:23.835Z,27.35
2022-08-26T14:05:30.317Z,27.38
2022-08-26T14:10:33.992Z,27.45
2022-08-26T14:15:38.675Z,27.49
2022-08-26T14:20:50.772Z,27.53
2022-08-26T14:25:54.616Z,27.58
2022-08-26T14:30:58.812Z,27.59
2022-08-26T14:36:20.481Z,27.55
2022-08-26T14:41:25.569Z,27.55
2022-08-26T14:46:32.016Z,27.52
2022-08-26T14:51:35.216Z,27.50
2022-08-26T14:56:51.553Z,27.47
2022-08-26T15:01:55.994Z,27.51
2022-08-26T15:07:00.818Z,27.50
2022-08-26T15:12:06.075Z,27.39
2022-08-26T15:17:09.237Z,27.24
2022-08-26T15:22:12.387Z,27.14
2022-08-26T15:27:15.860Z,27.11
2022-08-26T15:32:19.144Z,27.12
2022-08-26T15:37:22.636Z,27.14
2022-08-26T15:42:25.712Z,27.16
2022-08-26T15:47:28.774Z,27.12
2022-08-26T15:52:33.189Z,27.12
2022-08-26T15:57:36.292Z,27.13
2022-08-26T16:02:39.708Z,27.10
2022-08-26T16:07:42.779Z,27.05
2022-08-26T16:12:45.870Z,27.00
2022-08-26T16:17:49.369Z,26.95
2022-08-26T16:22:52.539Z,26.88
2022-08-26T16:27:56.069Z,26.81
2022-08-26T16:32:59.054Z,26.75
2022-08-26T16:38:02.278Z,26.67
2022-08-26T16:43:05.967Z,26.61
2022-08-26T16:48:10.021Z,26.54
2022-08-26T16:58:22.363Z,26.37
2022-08-26T17:03:25.662Z,26.27
2022-08-26T17:08:29.169Z,26.17
2022-08-26T17:13:35.108Z,26.04
2022-08-26T17:18:39.197Z,25.91
2022-08-26T17:23:45.143Z,25.78
2022-08-26T17:28:48.220Z,25.64
2022-08-26T17:33:53.344Z,25.50
2022-08-26T17:38:58.691Z,25.37
2022-08-26T17:44:01.792Z,25.24
2022-08-26T17:49:05.943Z,25.13
2022-08-26T17:54:09.337Z,25.00
2022-08-26T17:59:12.379Z,24.88
2022-08-26T18:04:16.012Z,24.77
2022-08-26T18:09:19.504Z,24.68
2022-08-26T18:14:22.560Z,24.59
2022-08-26T18:19:25.968Z,24.51
2022-08-26T18:24:41.599Z,24.42
2022-08-26T18:30:01.713Z,24.35
2022-08-26T18:35:05.335Z,24.27
2022-08-26T18:40:11.850Z,24.19
2022-08-26T18:45:16.157Z,24.12
2022-08-26T18:50:19.500Z,24.04
2022-08-26T18:55:22.842Z,23.96
2022-08-26T19:00:25.843Z,23.89
2022-08-26T19:05:28.922Z,23.81
2022-08-26T19:10:32.028Z,23.75
2022-08-26T19:15:43.115Z,23.68
2022-08-26T19:20:48.034Z,23.62
2022-08-26T19:25:53.189Z,23.56
2022-08-26T19:30:56.379Z,23.51
2022-08-26T19:35:59.443Z,23.46
2022-08-26T19:41:02.432Z,23.40
2022-08-26T19:46:20.101Z,23.35
2022-08-26T19:51:30.405Z,23.30
2022-08-26T19:56:33.380Z,23.25
2022-08-26T20:01:36.413Z,23.19
2022-08-26T20:06:39.852Z,23.13
2022-08-26T20:11:42.842Z,23.08
2022-08-26T20:16:45.905Z,23.03
2022-08-26T20:21:49.080Z,22.96
2022-08-26T20:26:53.464Z,22.91
2022-08-26T20:31:57.048Z,22.84
2022-08-26T20:37:00.581Z,22.73
2022-08-26T20:42:05.475Z,22.60
2022-08-26T20:47:23.563Z,22.45
2022-08-26T20:52:26.704Z,22.34
2022-08-26T20:57:29.835Z,22.24
2022-08-26T21:02:32.924Z,22.14
2022-08-26T21:07:36.042Z,22.06
2022-08-26T21:12:39.405Z,21.99
2022-08-26T21:17:42.531Z,21.91
2022-08-26T21:22:45.891Z,21.84
2022-08-26T21:27:48.985Z,21.77
2022-08-26T21:32:52.117Z,21.71
2022-08-26T21:37:55.214Z,21.65
2022-08-26T21:42:58.417Z,21.59
2022-08-26T21:48:01.542Z,21.52
2022-08-26T21:53:04.653Z,21.46
2022-08-26T21:58:07.771Z,21.40
2022-08-26T22:03:10.914Z,21.35
2022-08-26T22:08:14.007Z,21.29
2022-08-26T22:13:17.662Z,21.24
2022-08-26T22:18:21.789Z,21.19
2022-08-26T22:23:24.924Z,21.14
2022-08-26T22:28:28.613Z,21.08
2022-08-26T22:33:31.663Z,21.03
2022-08-26T22:38:35.001Z,20.98
2022-08-26T22:43:38.854Z,20.94
2022-08-26T22:48:42.927Z,21.73
2022-08-26T22:53:46.768Z,24.20
2022-08-26T22:58:50.222Z,24.87
2022-08-26T23:03:53.871Z,23.67
2022-08-26T23:08:56.974Z,22.93
2022-08-26T23:14:06.733Z,22.47
2022-08-26T23:19:13.669Z,22.12
2022-08-26T23:24:18.617Z,21.80
2022-08-26T23:29:21.715Z,21.54
2022-08-26T23:34:43.399Z,21.37
2022-08-26T23:39:46.768Z,21.25
2022-08-26T23:44:50.427Z,21.15
2022-08-26T23:49:53.497Z,21.07
2022-08-26T23:54:56.687Z,21.00
